Terminal Aerodrome Forecast
Issued by NWS Dodge City, KS

Home | Current Version | Previous Version | Graphics & Text | Print | Product List | Glossary Off
Versions: 1 2 3 4 5 6 7 8 9 10 11 12 13 14

000
FTUS43 KDDC 110520
TAFDDC
TAF
KDDC 110520Z 1106/1206 25009KT P6SM SKC
     FM111400 31014G22KT P6SM SKC
     FM111700 34018G27KT P6SM SKC
     FM120000 33010KT P6SM SKC=

USA.gov is the U.S. government's official web portal to all federal, state and local government web resources and services.